sensor_id;sensor_type;location;lat;lon;timestamp;pressure;altitude;pressure_sealevel;temperature;humidity
64078;BME280;51039;49.696;10.808;2023-10-19T00:00:36;96916.59;;;7.33;100.00
64078;BME280;51039;49.696;10.808;2023-10-19T00:03:06;96918.03;;;7.29;100.00
64078;BME280;51039;49.696;10.808;2023-10-19T00:05:35;96906.88;;;7.34;100.00
64078;BME280;51039;49.696;10.808;2023-10-19T00:08:01;96900.44;;;7.30;100.00
64078;BME280;51039;49.696;10.808;2023-10-19T00:10:40;96911.31;;;7.33;100.00
64078;BME280;51039;49.696;10.808;2023-10-19T00:13:08;96890.03;;;7.35;100.00
64078;BME280;51039;49.696;10.808;2023-10-19T00:15:36;96889.66;;;7.31;100.00
64078;BME280;51039;49.696;10.808;2023-10-19T00:18:19;96882.78;;;7.30;100.00
64078;BME280;51039;49.696;10.808;2023-10-19T00:20:49;96894.50;;;7.34;100.00
64078;BME280;51039;49.696;10.808;2023-10-19T00:23:17;96882.34;;;7.33;100.00
64078;BME280;51039;49.696;10.808;2023-10-19T00:26:00;96877.22;;;7.38;100.00
64078;BME280;51039;49.696;10.808;2023-10-19T00:28:40;96884.72;;;7.41;100.00
64078;BME280;51039;49.696;10.808;2023-10-19T00:31:05;96877.97;;;7.45;100.00
64078;BME280;51039;49.696;10.808;2023-10-19T00:33:34;96876.81;;;7.41;100.00
64078;BME280;51039;49.696;10.808;2023-10-19T00:36:08;96874.97;;;7.42;100.00
64078;BME280;51039;49.696;10.808;2023-10-19T00:38:38;96876.81;;;7.41;100.00
64078;BME280;51039;49.696;10.808;2023-10-19T00:41:05;96871.09;;;7.44;100.00
64078;BME280;51039;49.696;10.808;2023-10-19T00:43:35;96869.84;;;7.47;100.00
64078;BME280;51039;49.696;10.808;2023-10-19T00:46:18;96875.84;;;7.54;100.00
64078;BME280;51039;49.696;10.808;2023-10-19T00:48:54;96883.53;;;7.56;100.00
64078;BME280;51039;49.696;10.808;2023-10-19T00:51:31;96886.03;;;7.51;100.00
64078;BME280;51039;49.696;10.808;2023-10-19T00:54:08;96878.78;;;7.46;100.00
64078;BME280;51039;49.696;10.808;2023-10-19T00:56:40;96872.88;;;7.51;100.00
64078;BME280;51039;49.696;10.808;2023-10-19T00:59:14;96859.91;;;7.49;100.00
64078;BME280;51039;49.696;10.808;2023-10-19T01:01:50;96856.44;;;7.48;100.00
64078;BME280;51039;49.696;10.808;2023-10-19T01:04:19;96850.84;;;7.45;100.00
64078;BME280;51039;49.696;10.808;2023-10-19T01:06:48;96846.38;;;7.45;100.00
64078;BME280;51039;49.696;10.808;2023-10-19T01:09:28;96848.19;;;7.45;100.00
64078;BME280;51039;49.696;10.808;2023-10-19T01:11:59;96843.16;;;7.43;100.00
64078;BME280;51039;49.696;10.808;2023-10-19T01:14:28;96845.31;;;7.46;100.00
64078;BME280;51039;49.696;10.808;2023-10-19T01:16:54;96845.31;;;7.46;100.00
64078;BME280;51039;49.696;10.808;2023-10-19T01:19:24;96832.03;;;7.41;100.00
64078;BME280;51039;49.696;10.808;2023-10-19T01:21:52;96832.81;;;7.42;100.00
64078;BME280;51039;49.696;10.808;2023-10-19T01:24:21;96816.81;;;7.43;100.00
64078;BME280;51039;49.696;10.808;2023-10-19T01:26:57;96809.13;;;7.42;100.00
64078;BME280;51039;49.696;10.808;2023-10-19T01:29:24;96814.75;;;7.45;100.00
64078;BME280;51039;49.696;10.808;2023-10-19T01:31:53;96816.34;;;7.46;100.00
64078;BME280;51039;49.696;10.808;2023-10-19T01:34:29;96805.38;;;7.50;100.00
64078;BME280;51039;49.696;10.808;2023-10-19T01:36:55;96801.13;;;7.48;100.00
64078;BME280;51039;49.696;10.808;2023-10-19T01:39:21;96817.88;;;7.54;100.00
64078;BME280;51039;49.696;10.808;2023-10-19T01:41:46;96798.94;;;7.45;100.00
64078;BME280;51039;49.696;10.808;2023-10-19T01:44:11;96806.06;;;7.45;100.00
64078;BME280;51039;49.696;10.808;2023-10-19T01:46:40;96806.09;;;7.57;100.00
64078;BME280;51039;49.696;10.808;2023-10-19T01:49:08;96801.72;;;7.51;100.00
64078;BME280;51039;49.696;10.808;2023-10-19T01:51:34;96795.19;;;7.53;100.00
64078;BME280;51039;49.696;10.808;2023-10-19T01:54:03;96786.25;;;7.54;100.00
64078;BME280;51039;49.696;10.808;2023-10-19T01:56:30;96783.41;;;7.56;100.00
64078;BME280;51039;49.696;10.808;2023-10-19T01:58:56;96768.06;;;7.53;100.00
64078;BME280;51039;49.696;10.808;2023-10-19T02:01:22;96771.69;;;7.52;100.00
64078;BME280;51039;49.696;10.808;2023-10-19T02:03:51;96781.22;;;7.53;100.00
64078;BME280;51039;49.696;10.808;2023-10-19T02:06:23;96787.88;;;7.55;100.00
64078;BME280;51039;49.696;10.808;2023-10-19T02:08:55;96787.19;;;7.60;100.00
64078;BME280;51039;49.696;10.808;2023-10-19T02:11:42;96799.69;;;7.53;100.00
64078;BME280;51039;49.696;10.808;2023-10-19T02:14:11;96786.41;;;7.59;100.00
64078;BME280;51039;49.696;10.808;2023-10-19T02:16:39;96792.72;;;7.58;100.00
64078;BME280;51039;49.696;10.808;2023-10-19T02:19:09;96796.25;;;7.64;100.00
64078;BME280;51039;49.696;10.808;2023-10-19T02:21:34;96782.06;;;7.65;100.00
64078;BME280;51039;49.696;10.808;2023-10-19T02:24:05;96784.13;;;7.63;100.00
64078;BME280;51039;49.696;10.808;2023-10-19T02:26:32;96776.94;;;7.70;100.00
64078;BME280;51039;49.696;10.808;2023-10-19T02:28:58;96769.03;;;7.70;100.00
64078;BME280;51039;49.696;10.808;2023-10-19T02:31:24;96780.75;;;7.74;100.00
64078;BME280;51039;49.696;10.808;2023-10-19T02:33:53;96766.16;;;7.72;100.00
64078;BME280;51039;49.696;10.808;2023-10-19T02:36:26;96765.72;;;7.75;100.00
64078;BME280;51039;49.696;10.808;2023-10-19T02:38:55;96773.41;;;7.76;100.00
64078;BME280;51039;49.696;10.808;2023-10-19T02:41:24;96770.31;;;7.79;100.00
64078;BME280;51039;49.696;10.808;2023-10-19T02:43:52;96762.66;;;7.78;100.00
64078;BME280;51039;49.696;10.808;2023-10-19T02:46:27;96758.50;;;7.70;100.00
64078;BME280;51039;49.696;10.808;2023-10-19T02:48:53;96755.28;;;7.68;100.00
64078;BME280;51039;49.696;10.808;2023-10-19T02:51:19;96746.34;;;7.69;100.00
64078;BME280;51039;49.696;10.808;2023-10-19T02:53:44;96744.28;;;7.71;100.00
64078;BME280;51039;49.696;10.808;2023-10-19T02:56:13;96752.34;;;7.76;100.00
64078;BME280;51039;49.696;10.808;2023-10-19T02:58:42;96749.22;;;7.79;100.00
64078;BME280;51039;49.696;10.808;2023-10-19T03:01:12;96745.00;;;7.78;100.00
64078;BME280;51039;49.696;10.808;2023-10-19T03:03:39;96745.00;;;7.78;100.00
64078;BME280;51039;49.696;10.808;2023-10-19T03:06:08;96747.84;;;7.77;100.00
64078;BME280;51039;49.696;10.808;2023-10-19T03:08:34;96746.16;;;7.82;100.00
64078;BME280;51039;49.696;10.808;2023-10-19T03:11:00;96744.09;;;7.84;100.00
64078;BME280;51039;49.696;10.808;2023-10-19T03:13:29;96742.16;;;7.80;100.00
64078;BME280;51039;49.696;10.808;2023-10-19T03:15:54;96733.41;;;7.79;100.00
64078;BME280;51039;49.696;10.808;2023-10-19T03:18:19;96727.13;;;7.80;100.00
64078;BME280;51039;49.696;10.808;2023-10-19T03:20:45;96730.44;;;7.76;100.00
64078;BME280;51039;49.696;10.808;2023-10-19T03:23:10;96722.44;;;7.82;100.00
64078;BME280;51039;49.696;10.808;2023-10-19T03:25:35;96716.00;;;7.78;100.00
64078;BME280;51039;49.696;10.808;2023-10-19T03:28:19;96708.09;;;7.78;100.00
64078;BME280;51039;49.696;10.808;2023-10-19T03:30:45;96714.31;;;7.84;100.00
64078;BME280;51039;49.696;10.808;2023-10-19T03:33:12;96713.94;;;7.80;100.00
64078;BME280;51039;49.696;10.808;2023-10-19T03:35:38;96710.88;;;7.83;100.00
64078;BME280;51039;49.696;10.808;2023-10-19T03:38:06;96706.97;;;7.86;100.00
64078;BME280;51039;49.696;10.808;2023-10-19T03:40:43;96711.56;;;7.91;100.00
64078;BME280;51039;49.696;10.808;2023-10-19T03:43:17;96705.84;;;7.94;100.00
64078;BME280;51039;49.696;10.808;2023-10-19T03:45:48;96690.47;;;7.91;100.00
64078;BME280;51039;49.696;10.808;2023-10-19T03:48:20;96695.75;;;7.91;100.00
64078;BME280;51039;49.696;10.808;2023-10-19T03:50:51;96694.47;;;7.81;100.00
64078;BME280;51039;49.696;10.808;2023-10-19T03:53:20;96685.31;;;7.84;100.00
64078;BME280;51039;49.696;10.808;2023-10-19T03:55:46;96686.69;;;7.86;100.00
64078;BME280;51039;49.696;10.808;2023-10-19T03:58:12;96666.72;;;7.79;100.00
64078;BME280;51039;49.696;10.808;2023-10-19T04:00:38;96667.19;;;7.76;100.00
64078;BME280;51039;49.696;10.808;2023-10-19T04:03:03;96657.44;;;7.76;100.00
64078;BME280;51039;49.696;10.808;2023-10-19T04:05:29;96658.47;;;7.75;100.00
64078;BME280;51039;49.696;10.808;2023-10-19T04:07:56;96649.75;;;7.75;100.00
64078;BME280;51039;49.696;10.808;2023-10-19T04:10:25;96651.38;;;7.76;100.00
64078;BME280;51039;49.696;10.808;2023-10-19T04:13:00;96641.63;;;7.76;100.00
64078;BME280;51039;49.696;10.808;2023-10-19T04:15:26;96644.84;;;7.78;100.00
64078;BME280;51039;49.696;10.808;2023-10-19T04:17:52;96640.38;;;7.91;100.00
64078;BME280;51039;49.696;10.808;2023-10-19T04:20:20;96626.84;;;7.87;100.00
64078;BME280;51039;49.696;10.808;2023-10-19T04:22:45;96623.41;;;7.86;100.00
64078;BME280;51039;49.696;10.808;2023-10-19T04:25:12;96612.31;;;7.84;100.00
64078;BME280;51039;49.696;10.808;2023-10-19T04:27:44;96608.41;;;7.87;100.00
64078;BME280;51039;49.696;10.808;2023-10-19T04:30:11;96620.22;;;7.84;100.00
64078;BME280;51039;49.696;10.808;2023-10-19T04:32:47;96621.94;;;7.91;100.00
64078;BME280;51039;49.696;10.808;2023-10-19T04:35:14;96623.63;;;7.85;100.00
64078;BME280;51039;49.696;10.808;2023-10-19T04:37:46;96632.94;;;7.88;100.00
64078;BME280;51039;49.696;10.808;2023-10-19T04:40:15;96620.34;;;7.90;100.00
64078;BME280;51039;49.696;10.808;2023-10-19T04:42:40;96620.44;;;7.95;100.00
64078;BME280;51039;49.696;10.808;2023-10-19T04:45:06;96623.06;;;7.95;100.00
64078;BME280;51039;49.696;10.808;2023-10-19T04:47:32;96624.56;;;7.91;100.00
64078;BME280;51039;49.696;10.808;2023-10-19T04:50:00;96610.94;;;7.94;100.00
64078;BME280;51039;49.696;10.808;2023-10-19T04:52:26;96610.38;;;7.92;100.00
64078;BME280;51039;49.696;10.808;2023-10-19T04:54:52;96624.13;;;7.94;100.00
64078;BME280;51039;49.696;10.808;2023-10-19T04:57:19;96613.69;;;7.99;100.00
64078;BME280;51039;49.696;10.808;2023-10-19T04:59:45;96614.84;;;8.03;100.00
64078;BME280;51039;49.696;10.808;2023-10-19T05:02:11;96612.31;;;7.96;100.00
64078;BME280;51039;49.696;10.808;2023-10-19T05:04:36;96603.16;;;7.99;100.00
64078;BME280;51039;49.696;10.808;2023-10-19T05:07:01;96607.84;;;7.97;100.00
64078;BME280;51039;49.696;10.808;2023-10-19T05:09:28;96604.28;;;8.03;100.00
64078;BME280;51039;49.696;10.808;2023-10-19T05:11:54;96601.31;;;7.99;100.00
64078;BME280;51039;49.696;10.808;2023-10-19T05:14:20;96604.75;;;8.00;100.00
64078;BME280;51039;49.696;10.808;2023-10-19T05:16:45;96603.47;;;8.02;100.00
64078;BME280;51039;49.696;10.808;2023-10-19T05:19:11;96582.84;;;7.99;100.00
64078;BME280;51039;49.696;10.808;2023-10-19T05:21:36;96582.06;;;7.99;100.00
64078;BME280;51039;49.696;10.808;2023-10-19T05:24:01;96582.06;;;7.99;100.00
64078;BME280;51039;49.696;10.808;2023-10-19T05:26:27;96582.72;;;8.06;100.00
64078;BME280;51039;49.696;10.808;2023-10-19T05:28:52;96588.00;;;8.06;100.00
64078;BME280;51039;49.696;10.808;2023-10-19T05:31:19;96587.44;;;8.04;100.00
64078;BME280;51039;49.696;10.808;2023-10-19T05:33:45;96601.88;;;8.01;100.00
64078;BME280;51039;49.696;10.808;2023-10-19T05:36:13;96598.53;;;8.06;100.00
64078;BME280;51039;49.696;10.808;2023-10-19T05:38:39;96602.31;;;8.10;100.00
64078;BME280;51039;49.696;10.808;2023-10-19T05:41:05;96601.75;;;8.08;100.00
64078;BME280;51039;49.696;10.808;2023-10-19T05:43:30;96601.31;;;8.11;100.00
64078;BME280;51039;49.696;10.808;2023-10-19T05:45:56;96600.84;;;8.14;100.00
64078;BME280;51039;49.696;10.808;2023-10-19T05:48:21;96604.84;;;8.17;100.00
64078;BME280;51039;49.696;10.808;2023-10-19T05:50:49;96612.06;;;8.21;100.00
64078;BME280;51039;49.696;10.808;2023-10-19T05:53:14;96609.44;;;8.21;100.00
64078;BME280;51039;49.696;10.808;2023-10-19T05:55:43;96612.41;;;8.25;100.00
64078;BME280;51039;49.696;10.808;2023-10-19T05:58:09;96603.59;;;8.19;100.00
64078;BME280;51039;49.696;10.808;2023-10-19T06:00:35;96605.19;;;8.20;100.00
64078;BME280;51039;49.696;10.808;2023-10-19T06:03:00;96607.28;;;8.18;100.00
64078;BME280;51039;49.696;10.808;2023-10-19T06:05:25;96608.41;;;8.22;100.00
64078;BME280;51039;49.696;10.808;2023-10-19T06:07:51;96605.41;;;8.31;100.00
64078;BME280;51039;49.696;10.808;2023-10-19T06:10:18;96602.56;;;8.32;100.00
64078;BME280;51039;49.696;10.808;2023-10-19T06:12:45;96603.69;;;8.36;100.00
64078;BME280;51039;49.696;10.808;2023-10-19T06:15:13;96624.34;;;8.39;100.00
64078;BME280;51039;49.696;10.808;2023-10-19T06:17:40;96630.00;;;8.43;100.00
64078;BME280;51039;49.696;10.808;2023-10-19T06:20:07;96622.66;;;8.45;100.00
64078;BME280;51039;49.696;10.808;2023-10-19T06:22:37;96630.31;;;8.47;100.00
64078;BME280;51039;49.696;10.808;2023-10-19T06:25:03;96618.03;;;8.52;100.00
64078;BME280;51039;49.696;10.808;2023-10-19T06:27:30;96620.31;;;8.49;100.00
64078;BME280;51039;49.696;10.808;2023-10-19T06:29:56;96614.72;;;8.45;100.00
64078;BME280;51039;49.696;10.808;2023-10-19T06:32:22;96617.94;;;8.47;100.00
64078;BME280;51039;49.696;10.808;2023-10-19T06:34:47;96617.38;;;8.45;100.00
64078;BME280;51039;49.696;10.808;2023-10-19T06:37:12;96622.66;;;8.45;100.00
64078;BME280;51039;49.696;10.808;2023-10-19T06:39:38;96612.75;;;8.52;100.00
64078;BME280;51039;49.696;10.808;2023-10-19T06:42:06;96615.66;;;8.51;100.00
64078;BME280;51039;49.696;10.808;2023-10-19T06:44:38;96617.69;;;8.60;100.00
64078;BME280;51039;49.696;10.808;2023-10-19T06:47:05;96623.84;;;8.78;100.00
64078;BME280;51039;49.696;10.808;2023-10-19T06:49:31;96630.16;;;8.77;100.00
64078;BME280;51039;49.696;10.808;2023-10-19T06:51:57;96628.56;;;8.76;100.00
64078;BME280;51039;49.696;10.808;2023-10-19T06:54:22;96629.13;;;8.78;100.00
64078;BME280;51039;49.696;10.808;2023-10-19T06:56:47;96638.19;;;8.82;100.00
64078;BME280;51039;49.696;10.808;2023-10-19T06:59:13;96632.66;;;8.83;100.00
64078;BME280;51039;49.696;10.808;2023-10-19T07:01:38;96620.22;;;8.96;100.00
64078;BME280;51039;49.696;10.808;2023-10-19T07:04:03;96623.47;;;9.15;100.00
64078;BME280;51039;49.696;10.808;2023-10-19T07:06:29;96617.72;;;9.18;100.00
64078;BME280;51039;49.696;10.808;2023-10-19T07:08:55;96627.19;;;9.31;100.00
64078;BME280;51039;49.696;10.808;2023-10-19T07:11:21;96620.66;;;9.50;100.00
64078;BME280;51039;49.696;10.808;2023-10-19T07:13:49;96626.75;;;9.68;100.00
64078;BME280;51039;49.696;10.808;2023-10-19T07:16:14;96620.44;;;9.52;100.00
64078;BME280;51039;49.696;10.808;2023-10-19T07:18:39;96618.03;;;9.67;100.00
64078;BME280;51039;49.696;10.808;2023-10-19T07:21:05;96607.72;;;9.82;100.00
64078;BME280;51039;49.696;10.808;2023-10-19T07:23:34;96619.91;;;9.83;100.00
64078;BME280;51039;49.696;10.808;2023-10-19T07:26:02;96613.38;;;10.08;100.00
64078;BME280;51039;49.696;10.808;2023-10-19T07:28:28;96603.69;;;10.31;100.00
64078;BME280;51039;49.696;10.808;2023-10-19T07:30:54;96611.38;;;10.54;100.00
64078;BME280;51039;49.696;10.808;2023-10-19T07:33:21;96616.09;;;10.47;100.00
64078;BME280;51039;49.696;10.808;2023-10-19T07:35:47;96609.16;;;10.46;100.00
64078;BME280;51039;49.696;10.808;2023-10-19T07:38:17;96603.50;;;11.04;100.00
64078;BME280;51039;49.696;10.808;2023-10-19T07:40:45;96603.31;;;11.37;100.00
64078;BME280;51039;49.696;10.808;2023-10-19T07:43:11;96610.28;;;11.49;100.00
64078;BME280;51039;49.696;10.808;2023-10-19T07:45:36;96604.81;;;11.28;100.00
64078;BME280;51039;49.696;10.808;2023-10-19T07:48:02;96599.69;;;11.49;100.00
64078;BME280;51039;49.696;10.808;2023-10-19T07:50:37;96586.28;;;11.61;100.00
64078;BME280;51039;49.696;10.808;2023-10-19T07:53:05;96587.44;;;11.43;100.00
64078;BME280;51039;49.696;10.808;2023-10-19T07:55:30;96595.59;;;11.63;100.00
64078;BME280;51039;49.696;10.808;2023-10-19T07:57:59;96594.19;;;11.55;100.00
64078;BME280;51039;49.696;10.808;2023-10-19T08:00:33;96584.72;;;11.65;100.00
64078;BME280;51039;49.696;10.808;2023-10-19T08:02:59;96586.03;;;11.62;100.00
64078;BME280;51039;49.696;10.808;2023-10-19T08:05:25;96585.16;;;11.56;100.00
64078;BME280;51039;49.696;10.808;2023-10-19T08:07:51;96577.72;;;11.21;100.00
64078;BME280;51039;49.696;10.808;2023-10-19T08:10:17;96577.59;;;11.38;100.00
64078;BME280;51039;49.696;10.808;2023-10-19T08:12:44;96580.63;;;11.84;100.00
64078;BME280;51039;49.696;10.808;2023-10-19T08:15:12;96582.91;;;12.03;100.00
64078;BME280;51039;49.696;10.808;2023-10-19T08:17:41;96589.13;;;12.18;100.00
64078;BME280;51039;49.696;10.808;2023-10-19T08:20:07;96581.56;;;12.00;100.00
64078;BME280;51039;49.696;10.808;2023-10-19T08:22:38;96581.72;;;11.88;100.00
64078;BME280;51039;49.696;10.808;2023-10-19T08:25:04;96593.81;;;12.06;100.00
64078;BME280;51039;49.696;10.808;2023-10-19T08:27:37;96584.44;;;11.93;100.00
64078;BME280;51039;49.696;10.808;2023-10-19T08:30:09;96588.41;;;11.64;100.00
64078;BME280;51039;49.696;10.808;2023-10-19T08:32:35;96588.88;;;11.88;100.00
64078;BME280;51039;49.696;10.808;2023-10-19T08:35:01;96584.44;;;12.36;100.00
64078;BME280;51039;49.696;10.808;2023-10-19T08:37:26;96590.09;;;12.55;100.00
64078;BME280;51039;49.696;10.808;2023-10-19T08:39:52;96586.88;;;12.48;100.00
64078;BME280;51039;49.696;10.808;2023-10-19T08:42:18;96574.53;;;12.79;100.00
64078;BME280;51039;49.696;10.808;2023-10-19T08:44:44;96569.00;;;12.96;100.00
64078;BME280;51039;49.696;10.808;2023-10-19T08:47:10;96567.75;;;13.24;100.00
64078;BME280;51039;49.696;10.808;2023-10-19T08:49:37;96567.22;;;13.89;100.00
64078;BME280;51039;49.696;10.808;2023-10-19T08:52:02;96571.25;;;13.66;97.68
64078;BME280;51039;49.696;10.808;2023-10-19T08:54:30;96576.56;;;13.50;98.21
64078;BME280;51039;49.696;10.808;2023-10-19T08:56:55;96567.25;;;13.63;99.04
64078;BME280;51039;49.696;10.808;2023-10-19T08:59:21;96572.03;;;13.51;100.00
64078;BME280;51039;49.696;10.808;2023-10-19T09:01:46;96574.44;;;13.42;100.00
64078;BME280;51039;49.696;10.808;2023-10-19T09:04:12;96575.69;;;13.29;100.00
64078;BME280;51039;49.696;10.808;2023-10-19T09:06:41;96565.41;;;13.69;98.96
64078;BME280;51039;49.696;10.808;2023-10-19T09:09:08;96571.19;;;14.12;100.00
64078;BME280;51039;49.696;10.808;2023-10-19T09:11:44;96574.75;;;14.78;93.06
64078;BME280;51039;49.696;10.808;2023-10-19T09:14:13;96559.88;;;15.16;90.69
64078;BME280;51039;49.696;10.808;2023-10-19T09:16:53;96565.72;;;15.23;90.63
64078;BME280;51039;49.696;10.808;2023-10-19T09:19:38;96567.34;;;15.93;84.53
64078;BME280;51039;49.696;10.808;2023-10-19T09:22:05;96571.09;;;15.92;88.74
64078;BME280;51039;49.696;10.808;2023-10-19T09:24:41;96573.34;;;16.09;85.78
64078;BME280;51039;49.696;10.808;2023-10-19T09:27:07;96571.97;;;15.48;87.49
64078;BME280;51039;49.696;10.808;2023-10-19T09:29:33;96577.00;;;15.10;91.43
64078;BME280;51039;49.696;10.808;2023-10-19T09:31:58;96581.00;;;14.37;93.88
64078;BME280;51039;49.696;10.808;2023-10-19T09:34:28;96574.41;;;13.99;97.82
64078;BME280;51039;49.696;10.808;2023-10-19T09:36:57;96571.97;;;14.12;98.33
64078;BME280;51039;49.696;10.808;2023-10-19T09:39:25;96578.06;;;14.44;96.05
64078;BME280;51039;49.696;10.808;2023-10-19T09:42:10;96571.75;;;14.89;92.38
64078;BME280;51039;49.696;10.808;2023-10-19T09:44:42;96570.56;;;15.56;89.67
64078;BME280;51039;49.696;10.808;2023-10-19T09:47:12;96562.16;;;15.73;86.56
64078;BME280;51039;49.696;10.808;2023-10-19T09:49:42;96555.94;;;16.12;84.00
64078;BME280;51039;49.696;10.808;2023-10-19T09:52:08;96561.75;;;16.91;78.66
64078;BME280;51039;49.696;10.808;2023-10-19T09:54:40;96565.72;;;16.69;80.53
64078;BME280;51039;49.696;10.808;2023-10-19T09:57:14;96554.75;;;16.47;84.27
64078;BME280;51039;49.696;10.808;2023-10-19T09:59:45;96554.53;;;16.67;80.85
64078;BME280;51039;49.696;10.808;2023-10-19T10:02:15;96544.78;;;17.20;79.31
64078;BME280;51039;49.696;10.808;2023-10-19T10:04:42;96548.44;;;17.43;75.88
64078;BME280;51039;49.696;10.808;2023-10-19T10:07:10;96537.91;;;16.95;78.45
64078;BME280;51039;49.696;10.808;2023-10-19T10:09:37;96537.69;;;17.29;78.17
64078;BME280;51039;49.696;10.808;2023-10-19T10:14:56;96525.25;;;17.71;75.22
64078;BME280;51039;49.696;10.808;2023-10-19T10:17:36;96522.72;;;17.61;74.33
64078;BME280;51039;49.696;10.808;2023-10-19T10:22:39;96519.09;;;18.17;73.58
64078;BME280;51039;49.696;10.808;2023-10-19T10:25:08;96510.66;;;18.24;71.82
64078;BME280;51039;49.696;10.808;2023-10-19T10:27:53;96501.91;;;18.04;73.48
64078;BME280;51039;49.696;10.808;2023-10-19T10:30:20;96506.03;;;17.50;75.51
64078;BME280;51039;49.696;10.808;2023-10-19T10:32:46;96491.34;;;17.80;75.39
64078;BME280;51039;49.696;10.808;2023-10-19T10:38:01;96491.31;;;18.41;72.67
64078;BME280;51039;49.696;10.808;2023-10-19T10:40:27;96493.66;;;18.56;71.26
64078;BME280;51039;49.696;10.808;2023-10-19T10:43:12;96491.91;;;18.24;72.56
64078;BME280;51039;49.696;10.808;2023-10-19T10:45:37;96486.09;;;18.72;69.79
64078;BME280;51039;49.696;10.808;2023-10-19T10:48:03;96484.91;;;18.64;70.74
64078;BME280;51039;49.696;10.808;2023-10-19T10:50:29;96480.19;;;18.48;71.18
64078;BME280;51039;49.696;10.808;2023-10-19T10:52:54;96482.75;;;18.39;71.87
64078;BME280;51039;49.696;10.808;2023-10-19T10:55:22;96489.41;;;18.28;73.09
64078;BME280;51039;49.696;10.808;2023-10-19T10:57:49;96488.31;;;18.15;73.09
64078;BME280;51039;49.696;10.808;2023-10-19T11:00:15;96478.41;;;18.01;74.91
64078;BME280;51039;49.696;10.808;2023-10-19T11:02:44;96482.69;;;17.70;78.47
64078;BME280;51039;49.696;10.808;2023-10-19T11:05:11;96471.78;;;17.80;78.76
64078;BME280;51039;49.696;10.808;2023-10-19T11:07:41;96474.81;;;17.92;78.35
64078;BME280;51039;49.696;10.808;2023-10-19T11:10:07;96467.91;;;18.19;76.17
64078;BME280;51039;49.696;10.808;2023-10-19T11:12:34;96461.16;;;17.94;76.04
64078;BME280;51039;49.696;10.808;2023-10-19T11:15:00;96465.41;;;18.36;75.17
64078;BME280;51039;49.696;10.808;2023-10-19T11:17:27;96458.97;;;18.10;73.90
64078;BME280;51039;49.696;10.808;2023-10-19T11:19:57;96460.03;;;18.36;74.20
64078;BME280;51039;49.696;10.808;2023-10-19T11:22:23;96461.44;;;17.92;75.40
64078;BME280;51039;49.696;10.808;2023-10-19T11:24:50;96460.25;;;17.84;75.25
64078;BME280;51039;49.696;10.808;2023-10-19T11:27:26;96458.75;;;18.06;74.61
64078;BME280;51039;49.696;10.808;2023-10-19T11:29:56;96448.34;;;18.04;74.79
64078;BME280;51039;49.696;10.808;2023-10-19T11:32:23;96449.47;;;17.71;77.46
64078;BME280;51039;49.696;10.808;2023-10-19T11:34:50;96452.25;;;17.65;76.84
64078;BME280;51039;49.696;10.808;2023-10-19T11:37:21;96445.75;;;17.39;78.13
64078;BME280;51039;49.696;10.808;2023-10-19T11:39:47;96436.22;;;17.33;78.46
64078;BME280;51039;49.696;10.808;2023-10-19T11:42:14;96438.03;;;17.51;79.66
64078;BME280;51039;49.696;10.808;2023-10-19T11:44:40;96438.91;;;17.93;76.51
64078;BME280;51039;49.696;10.808;2023-10-19T11:47:05;96438.91;;;17.93;75.41
64078;BME280;51039;49.696;10.808;2023-10-19T11:49:31;96431.91;;;17.64;76.38
64078;BME280;51039;49.696;10.808;2023-10-19T11:51:56;96442.50;;;17.42;79.18
64078;BME280;51039;49.696;10.808;2023-10-19T11:54:22;96434.78;;;17.21;79.70
64078;BME280;51039;49.696;10.808;2023-10-19T11:56:47;96431.91;;;17.18;81.35
64078;BME280;51039;49.696;10.808;2023-10-19T11:59:14;96430.00;;;17.18;81.30
64078;BME280;51039;49.696;10.808;2023-10-19T12:01:40;96431.00;;;17.22;81.86
64078;BME280;51039;49.696;10.808;2023-10-19T12:04:05;96431.44;;;17.30;80.57
64078;BME280;51039;49.696;10.808;2023-10-19T12:06:31;96436.28;;;17.27;80.70
64078;BME280;51039;49.696;10.808;2023-10-19T12:08:56;96437.13;;;17.42;80.06
64078;BME280;51039;49.696;10.808;2023-10-19T12:11:24;96432.00;;;17.59;79.73
64078;BME280;51039;49.696;10.808;2023-10-19T12:13:50;96422.16;;;17.55;80.28
64078;BME280;51039;49.696;10.808;2023-10-19T12:16:15;96421.41;;;17.82;78.90
64078;BME280;51039;49.696;10.808;2023-10-19T12:18:41;96413.69;;;17.80;78.66
64078;BME280;51039;49.696;10.808;2023-10-19T12:21:08;96412.66;;;17.76;78.56
64078;BME280;51039;49.696;10.808;2023-10-19T12:23:38;96409.06;;;17.53;79.76
64078;BME280;51039;49.696;10.808;2023-10-19T12:26:04;96399.56;;;17.47;79.69
64078;BME280;51039;49.696;10.808;2023-10-19T12:28:35;96395.31;;;17.60;79.14
64078;BME280;51039;49.696;10.808;2023-10-19T12:31:03;96393.44;;;17.74;79.41
64078;BME280;51039;49.696;10.808;2023-10-19T12:33:30;96399.44;;;17.85;80.92
64078;BME280;51039;49.696;10.808;2023-10-19T12:35:55;96402.97;;;17.80;78.41
64078;BME280;51039;49.696;10.808;2023-10-19T12:38:22;96397.91;;;17.65;79.89
64078;BME280;51039;49.696;10.808;2023-10-19T12:40:48;96405.34;;;17.82;79.93
64078;BME280;51039;49.696;10.808;2023-10-19T12:43:15;96408.75;;;17.88;79.24
64078;BME280;51039;49.696;10.808;2023-10-19T12:45:44;96409.41;;;17.65;80.13
64078;BME280;51039;49.696;10.808;2023-10-19T12:48:15;96410.69;;;17.68;79.49
64078;BME280;51039;49.696;10.808;2023-10-19T12:50:41;96419.00;;;17.53;82.10
64078;BME280;51039;49.696;10.808;2023-10-19T12:53:07;96420.19;;;17.60;81.07
64078;BME280;51039;49.696;10.808;2023-10-19T12:55:33;96419.63;;;17.63;80.30
64078;BME280;51039;49.696;10.808;2023-10-19T12:57:59;96415.94;;;17.59;82.43
64078;BME280;51039;49.696;10.808;2023-10-19T13:00:32;96416.44;;;17.61;81.12